createdAt,value
2024-05-09T00:00:30.585Z,9.45
2024-05-09T00:01:24.676Z,9.45
2024-05-09T00:02:24.758Z,9.44
2024-05-09T00:03:24.659Z,9.41
2024-05-09T00:04:24.615Z,9.40
2024-05-09T00:05:24.726Z,9.38
2024-05-09T00:06:24.555Z,9.41
2024-05-09T00:07:24.539Z,9.40
2024-05-09T00:08:24.611Z,9.38
2024-05-09T00:09:24.523Z,9.37
2024-05-09T00:10:32.687Z,9.35
2024-05-09T00:11:24.594Z,9.34
2024-05-09T00:12:24.565Z,9.31
2024-05-09T00:13:24.476Z,9.27
2024-05-09T00:14:24.513Z,9.24
2024-05-09T00:15:24.457Z,9.22
2024-05-09T00:16:24.451Z,9.19
2024-05-09T00:17:24.660Z,9.19
2024-05-09T00:18:24.613Z,9.17
2024-05-09T00:19:24.471Z,9.15
2024-05-09T00:20:32.316Z,9.15
2024-05-09T00:21:24.392Z,9.15
2024-05-09T00:22:24.383Z,9.13
2024-05-09T00:23:24.439Z,9.12
2024-05-09T00:24:24.385Z,9.12
2024-05-09T00:25:24.354Z,9.12
2024-05-09T00:26:24.395Z,9.13
2024-05-09T00:27:24.325Z,9.13
2024-05-09T00:28:24.331Z,9.13
2024-05-09T00:29:24.430Z,9.15
2024-05-09T00:30:32.720Z,9.15
2024-05-09T00:31:24.290Z,9.16
2024-05-09T00:32:24.343Z,9.16
2024-05-09T00:33:24.604Z,9.16
2024-05-09T00:34:24.430Z,9.17
2024-05-09T00:35:24.391Z,9.17
2024-05-09T00:36:24.219Z,9.15
2024-05-09T00:37:24.224Z,9.15
2024-05-09T00:38:24.272Z,9.17
2024-05-09T00:39:24.193Z,9.15
2024-05-09T00:40:34.734Z,9.13
2024-05-09T00:41:24.243Z,9.12
2024-05-09T00:42:24.149Z,9.10
2024-05-09T00:43:24.143Z,9.10
2024-05-09T00:44:24.207Z,9.06
2024-05-09T00:45:24.148Z,9.04
2024-05-09T00:46:24.119Z,9.03
2024-05-09T00:47:24.365Z,9.01
2024-05-09T00:48:24.258Z,9.01
2024-05-09T00:49:24.192Z,9.00
2024-05-09T00:50:29.974Z,8.96
2024-05-09T00:51:24.115Z,8.91
2024-05-09T00:52:24.055Z,8.89
2024-05-09T00:53:24.092Z,8.91
2024-05-09T00:54:24.038Z,8.88
2024-05-09T00:55:24.028Z,8.85
2024-05-09T00:56:24.056Z,8.85
2024-05-09T00:57:24.016Z,8.83
2024-05-09T00:58:23.971Z,8.83
2024-05-09T00:59:24.139Z,8.83
2024-05-09T01:00:31.510Z,8.85
2024-05-09T01:01:23.983Z,8.83
2024-05-09T01:02:24.055Z,8.83
2024-05-09T01:03:24.442Z,8.83
2024-05-09T01:04:23.939Z,8.83
2024-05-09T01:05:23.950Z,8.83
2024-05-09T01:06:23.898Z,8.80
2024-05-09T01:07:23.913Z,8.79
2024-05-09T01:08:23.891Z,8.78
2024-05-09T01:09:23.850Z,8.75
2024-05-09T01:10:28.227Z,8.73
2024-05-09T01:11:24.008Z,8.68
2024-05-09T01:12:23.914Z,8.64
2024-05-09T01:13:23.817Z,8.55
2024-05-09T01:14:23.916Z,8.47
2024-05-09T01:15:23.791Z,8.42
2024-05-09T01:16:23.778Z,8.40
2024-05-09T01:17:23.836Z,8.37
2024-05-09T01:18:23.888Z,8.34
2024-05-09T01:19:23.927Z,8.32
2024-05-09T01:20:32.255Z,8.29
2024-05-09T01:21:23.829Z,8.31
2024-05-09T01:22:23.708Z,8.31
2024-05-09T01:23:23.727Z,8.29
2024-05-09T01:24:23.694Z,8.29
2024-05-09T01:25:23.687Z,8.29
2024-05-09T01:26:23.722Z,8.28
2024-05-09T01:27:23.672Z,8.25
2024-05-09T01:28:23.639Z,8.24
2024-05-09T01:29:23.696Z,8.21
2024-05-09T01:30:31.308Z,8.21
2024-05-09T01:31:23.626Z,8.18
2024-05-09T01:32:23.754Z,8.20
2024-05-09T01:33:23.836Z,8.18
2024-05-09T01:34:23.611Z,8.18
2024-05-09T01:35:23.877Z,8.14
2024-05-09T01:36:23.565Z,8.18
2024-05-09T01:37:23.545Z,8.18
2024-05-09T01:38:23.607Z,8.14
2024-05-09T01:39:23.532Z,8.13
2024-05-09T01:40:33.306Z,8.10
2024-05-09T01:41:23.540Z,8.07
2024-05-09T01:42:23.515Z,8.09
2024-05-09T01:43:23.493Z,8.07
2024-05-09T01:44:23.547Z,8.07
2024-05-09T01:45:23.458Z,8.04
2024-05-09T01:46:23.452Z,8.04
2024-05-09T01:47:23.610Z,8.03
2024-05-09T01:48:23.546Z,8.00
2024-05-09T01:49:23.643Z,7.99
2024-05-09T01:50:35.717Z,7.99
2024-05-09T01:51:23.463Z,7.95
2024-05-09T01:52:23.383Z,7.92
2024-05-09T01:53:23.424Z,7.91
2024-05-09T01:54:23.360Z,7.89
2024-05-09T01:55:23.347Z,7.89
2024-05-09T01:56:23.383Z,7.88
2024-05-09T01:57:23.348Z,7.88
2024-05-09T01:58:23.319Z,7.88
2024-05-09T01:59:23.378Z,7.88
2024-05-09T02:00:33.735Z,7.86
2024-05-09T02:01:23.332Z,7.84
2024-05-09T02:02:23.445Z,7.82
2024-05-09T02:03:23.516Z,7.82
2024-05-09T02:04:23.455Z,7.81
2024-05-09T02:05:23.450Z,7.79
2024-05-09T02:06:23.265Z,7.77
2024-05-09T02:07:23.215Z,7.74
2024-05-09T02:08:23.227Z,7.71
2024-05-09T02:09:23.195Z,7.73
2024-05-09T02:10:30.164Z,7.74
2024-05-09T02:11:23.256Z,7.74
2024-05-09T02:12:23.257Z,7.74
2024-05-09T02:13:23.150Z,7.73
2024-05-09T02:14:23.174Z,7.73
2024-05-09T02:15:23.129Z,7.74
2024-05-09T02:16:23.121Z,7.73
2024-05-09T02:17:23.271Z,7.71
2024-05-09T02:18:23.310Z,7.70
2024-05-09T02:19:23.229Z,7.70
2024-05-09T02:20:30.550Z,7.69
2024-05-09T02:21:23.079Z,7.69
2024-05-09T02:22:23.061Z,7.67
2024-05-09T02:23:23.083Z,7.67
2024-05-09T02:24:23.032Z,7.62
2024-05-09T02:25:23.015Z,7.62
2024-05-09T02:26:23.040Z,7.62
2024-05-09T02:27:22.993Z,7.58
2024-05-09T02:28:22.985Z,7.57
2024-05-09T02:29:23.067Z,7.58
2024-05-09T02:30:30.585Z,7.62
2024-05-09T02:31:22.965Z,7.62
2024-05-09T02:32:23.037Z,7.62
2024-05-09T02:33:23.229Z,7.63
2024-05-09T02:34:23.138Z,7.67
2024-05-09T02:35:23.068Z,7.66
2024-05-09T02:36:22.905Z,7.63
2024-05-09T02:37:22.885Z,7.62
2024-05-09T02:38:22.929Z,7.63
2024-05-09T02:39:22.865Z,7.60
2024-05-09T02:40:32.971Z,7.58
2024-05-09T02:41:22.886Z,7.58
2024-05-09T02:42:22.820Z,7.58
2024-05-09T02:43:22.815Z,7.55
2024-05-09T02:44:22.853Z,7.51
2024-05-09T02:45:22.802Z,7.50
2024-05-09T02:46:22.788Z,7.48
2024-05-09T02:47:22.978Z,7.45
2024-05-09T02:48:22.927Z,7.42
2024-05-09T02:49:22.841Z,7.39
2024-05-09T02:50:30.113Z,7.37
2024-05-09T02:51:22.765Z,7.34
2024-05-09T02:52:22.726Z,7.34
2024-05-09T02:53:22.797Z,7.36
2024-05-09T02:54:22.694Z,7.37
2024-05-09T02:55:22.675Z,7.34
2024-05-09T02:56:22.833Z,7.34
2024-05-09T02:57:22.662Z,7.34
2024-05-09T02:58:22.654Z,7.33
2024-05-09T02:59:22.883Z,7.36
2024-05-09T03:00:26.695Z,7.34
2024-05-09T03:01:22.646Z,7.37
2024-05-09T03:02:22.685Z,7.39
2024-05-09T03:03:22.945Z,7.39
2024-05-09T03:04:22.627Z,7.39
2024-05-09T03:05:22.639Z,7.39
2024-05-09T03:06:22.604Z,7.39
2024-05-09T03:07:22.547Z,7.36
2024-05-09T03:08:22.672Z,7.36
2024-05-09T03:09:22.524Z,7.30
2024-05-09T03:10:28.286Z,7.30
2024-05-09T03:11:22.715Z,7.29
2024-05-09T03:12:22.599Z,7.27
2024-05-09T03:13:22.491Z,7.24
2024-05-09T03:14:22.542Z,7.23
2024-05-09T03:15:22.488Z,7.21
2024-05-09T03:16:22.464Z,7.21
2024-05-09T03:17:22.547Z,7.18
2024-05-09T03:18:22.554Z,7.16
2024-05-09T03:19:22.561Z,7.16
2024-05-09T03:20:27.600Z,7.19
2024-05-09T03:21:22.404Z,7.18
2024-05-09T03:22:22.405Z,7.21
2024-05-09T03:23:22.449Z,7.21
2024-05-09T03:24:22.387Z,7.24
2024-05-09T03:25:22.353Z,7.23
2024-05-09T03:26:22.475Z,7.24
2024-05-09T03:27:22.333Z,7.24
2024-05-09T03:28:22.316Z,7.29
2024-05-09T03:29:22.330Z,7.29
2024-05-09T03:30:30.680Z,7.29
2024-05-09T03:31:22.289Z,7.32
2024-05-09T03:32:22.395Z,7.34
2024-05-09T03:33:22.586Z,7.33
2024-05-09T03:34:22.291Z,7.39
2024-05-09T03:35:22.492Z,7.39
2024-05-09T03:36:22.231Z,7.42
2024-05-09T03:37:22.235Z,7.42
2024-05-09T03:38:22.259Z,7.44
2024-05-09T03:39:22.199Z,7.48
2024-05-09T03:40:26.522Z,7.48
2024-05-09T03:41:22.277Z,7.52
2024-05-09T03:42:22.170Z,7.52
2024-05-09T03:43:22.154Z,7.52
2024-05-09T03:44:22.156Z,7.52
2024-05-09T03:45:22.127Z,7.55
2024-05-09T03:46:22.116Z,7.58
2024-05-09T03:47:22.324Z,7.58
2024-05-09T03:48:22.295Z,7.57
2024-05-09T03:49:22.455Z,7.58
2024-05-09T03:50:30.022Z,7.57
2024-05-09T03:51:22.090Z,7.57
2024-05-09T03:52:22.047Z,7.55
2024-05-09T03:53:22.104Z,7.57
2024-05-09T03:54:22.021Z,7.57
2024-05-09T03:55:22.014Z,7.60
2024-05-09T03:56:22.063Z,7.63
2024-05-09T03:57:21.995Z,7.63
2024-05-09T03:58:21.996Z,7.67
2024-05-09T03:59:22.065Z,7.67
2024-05-09T04:00:31.037Z,7.71
2024-05-09T04:01:21.985Z,7.70
2024-05-09T04:02:22.061Z,7.76
2024-05-09T04:03:22.225Z,7.76
2024-05-09T04:04:21.996Z,7.77
2024-05-09T04:05:21.932Z,7.76
2024-05-09T04:06:21.899Z,7.79
2024-05-09T04:07:21.898Z,7.77
2024-05-09T04:08:21.925Z,7.76
2024-05-09T04:09:21.867Z,7.77
2024-05-09T04:10:30.216Z,7.77
2024-05-09T04:11:21.870Z,7.77
2024-05-09T04:12:21.878Z,7.77
2024-05-09T04:13:21.835Z,7.77
2024-05-09T04:14:21.863Z,7.76
2024-05-09T04:15:21.798Z,7.71
2024-05-09T04:16:21.779Z,7.66
2024-05-09T04:17:21.810Z,7.63
2024-05-09T04:18:21.871Z,7.63
2024-05-09T04:19:21.931Z,7.62
2024-05-09T04:20:32.840Z,7.66
2024-05-09T04:21:21.765Z,7.66
2024-05-09T04:22:21.710Z,7.67
2024-05-09T04:23:21.731Z,7.63
2024-05-09T04:24:21.696Z,7.66
2024-05-09T04:25:21.719Z,7.63
2024-05-09T04:26:21.771Z,7.63
2024-05-09T04:27:21.668Z,7.63
2024-05-09T04:28:21.656Z,7.62
2024-05-09T04:29:21.672Z,7.60
2024-05-09T04:30:30.901Z,7.58
2024-05-09T04:31:21.628Z,7.57
2024-05-09T04:32:21.898Z,7.58
2024-05-09T04:33:21.953Z,7.60
2024-05-09T04:34:21.708Z,7.62
2024-05-09T04:35:21.644Z,7.60
2024-05-09T04:36:21.584Z,7.58
2024-05-09T04:37:21.552Z,7.57
2024-05-09T04:38:21.640Z,7.57
2024-05-09T04:39:21.533Z,7.57
2024-05-09T04:40:28.357Z,7.58
2024-05-09T04:41:21.546Z,7.58
2024-05-09T04:42:21.508Z,7.62
2024-05-09T04:43:21.489Z,7.63
2024-05-09T04:44:21.541Z,7.66
2024-05-09T04:45:21.458Z,7.67
2024-05-09T04:46:21.451Z,7.69
2024-05-09T04:47:21.675Z,7.69
2024-05-09T04:48:21.728Z,7.71
2024-05-09T04:49:21.784Z,7.73
2024-05-09T04:50:29.985Z,7.73
2024-05-09T04:51:21.406Z,7.74
2024-05-09T04:52:21.400Z,7.74
2024-05-09T04:53:21.543Z,7.74
2024-05-09T04:54:30.467Z,7.74
2024-05-09T04:55:21.557Z,7.76
2024-05-09T04:56:21.370Z,7.74
2024-05-09T04:57:21.396Z,7.74
2024-05-09T04:58:21.391Z,7.76
2024-05-09T04:59:21.379Z,7.76
2024-05-09T05:00:28.639Z,7.76
2024-05-09T05:01:21.312Z,7.74
2024-05-09T05:02:21.344Z,7.74
2024-05-09T05:03:21.602Z,7.71
2024-05-09T05:04:21.400Z,7.71
2024-05-09T05:05:21.274Z,7.70
2024-05-09T05:06:21.235Z,7.70
2024-05-09T05:07:21.212Z,7.67
2024-05-09T05:08:21.248Z,7.70
2024-05-09T05:09:21.195Z,7.73
2024-05-09T05:10:25.747Z,7.74
2024-05-09T05:11:21.270Z,7.77
2024-05-09T05:12:21.326Z,7.82
2024-05-09T05:13:22.370Z,7.84
2024-05-09T05:14:21.177Z,7.86
2024-05-09T05:15:21.151Z,7.89
2024-05-09T05:16:21.117Z,7.94
2024-05-09T05:17:21.216Z,7.99
2024-05-09T05:18:21.282Z,8.02
2024-05-09T05:19:21.146Z,8.03
2024-05-09T05:20:27.571Z,8.04
2024-05-09T05:21:21.279Z,8.09
2024-05-09T05:22:21.057Z,8.13
2024-05-09T05:23:21.176Z,8.18
2024-05-09T05:24:21.053Z,8.20
2024-05-09T05:25:21.061Z,8.20
2024-05-09T05:26:21.051Z,8.22
2024-05-09T05:27:21.004Z,8.28
2024-05-09T05:28:20.999Z,8.31
2024-05-09T05:29:21.212Z,8.36
2024-05-09T05:30:25.383Z,8.37
2024-05-09T05:31:20.987Z,8.42
2024-05-09T05:32:21.110Z,8.45
2024-05-09T05:33:21.100Z,8.52
2024-05-09T05:34:20.943Z,8.57
2024-05-09T05:35:21.019Z,8.60
2024-05-09T05:36:20.911Z,8.63
2024-05-09T05:37:20.893Z,8.64
2024-05-09T05:38:24.852Z,8.67
2024-05-09T05:39:20.867Z,8.70
2024-05-09T05:40:28.231Z,8.76
2024-05-09T05:41:20.916Z,8.79
2024-05-09T05:42:20.831Z,8.80
2024-05-09T05:43:20.853Z,8.85
2024-05-09T05:44:20.891Z,8.82
2024-05-09T05:45:20.792Z,8.82
2024-05-09T05:46:20.802Z,8.82
2024-05-09T05:47:20.882Z,8.86
2024-05-09T05:48:20.958Z,8.93
2024-05-09T05:49:20.965Z,9.00
2024-05-09T05:50:27.619Z,9.10
2024-05-09T05:51:20.846Z,9.12
2024-05-09T05:52:20.727Z,9.16
2024-05-09T05:53:20.727Z,9.17
2024-05-09T05:54:20.708Z,9.19
2024-05-09T05:55:20.691Z,9.23
2024-05-09T05:56:20.727Z,9.26
2024-05-09T05:57:20.678Z,9.30
2024-05-09T05:58:20.679Z,9.34
2024-05-09T05:59:20.665Z,9.38
2024-05-09T06:00:29.294Z,9.40
2024-05-09T06:01:20.651Z,9.45
2024-05-09T06:02:20.687Z,9.49
2024-05-09T06:03:20.665Z,9.48
2024-05-09T06:04:20.612Z,9.50
2024-05-09T06:05:20.633Z,9.56
2024-05-09T06:06:20.569Z,9.58
2024-05-09T06:07:20.563Z,9.62
2024-05-09T06:08:20.699Z,9.68
2024-05-09T06:09:20.572Z,9.74
2024-05-09T06:10:25.674Z,9.75
2024-05-09T06:11:20.564Z,9.77
2024-05-09T06:12:20.753Z,9.78
2024-05-09T06:13:20.490Z,9.80
2024-05-09T06:14:20.550Z,9.85
2024-05-09T06:15:20.473Z,9.85
2024-05-09T06:16:20.461Z,9.89
2024-05-09T06:17:20.597Z,9.92
2024-05-09T06:18:20.683Z,9.95
2024-05-09T06:19:20.661Z,9.95
2024-05-09T06:20:27.145Z,10.02
2024-05-09T06:21:20.568Z,10.06
2024-05-09T06:22:20.384Z,10.09
2024-05-09T06:23:20.387Z,10.09
2024-05-09T06:24:20.366Z,10.14
2024-05-09T06:25:20.341Z,10.20
2024-05-09T06:26:20.396Z,10.28
2024-05-09T06:27:20.330Z,10.34
2024-05-09T06:28:20.315Z,10.38
2024-05-09T06:29:20.387Z,10.43
2024-05-09T06:30:29.541Z,10.44
2024-05-09T06:31:20.283Z,10.51
2024-05-09T06:32:20.438Z,10.57
2024-05-09T06:33:20.489Z,10.62
2024-05-09T06:34:20.503Z,10.66
2024-05-09T06:35:20.272Z,10.70
2024-05-09T06:36:20.229Z,10.75
2024-05-09T06:37:20.215Z,10.80
2024-05-09T06:38:20.397Z,10.83
2024-05-09T06:39:20.193Z,10.87
2024-05-09T06:40:25.711Z,10.90
2024-05-09T06:41:20.235Z,10.99
2024-05-09T06:42:20.222Z,11.08
2024-05-09T06:43:20.295Z,11.11
2024-05-09T06:44:20.177Z,11.16
2024-05-09T06:45:20.136Z,11.19
2024-05-09T06:46:20.115Z,11.23
2024-05-09T06:47:20.198Z,11.27
2024-05-09T06:48:20.711Z,11.35
2024-05-09T06:49:20.317Z,11.42
2024-05-09T06:50:24.154Z,11.49
2024-05-09T06:51:20.103Z,11.56
2024-05-09T06:52:20.066Z,11.62
2024-05-09T06:53:20.083Z,11.67
2024-05-09T06:54:20.031Z,11.72
2024-05-09T06:55:20.015Z,11.77
2024-05-09T06:56:20.053Z,11.79
2024-05-09T06:57:19.991Z,11.81
2024-05-09T06:58:19.979Z,11.81
2024-05-09T06:59:19.997Z,11.85
2024-05-09T07:00:27.487Z,11.93
2024-05-09T07:01:19.971Z,11.97
2024-05-09T07:02:20.001Z,12.01
2024-05-09T07:03:20.174Z,12.04
2024-05-09T07:04:20.155Z,12.08
2024-05-09T07:05:19.956Z,12.13
2024-05-09T07:06:19.912Z,12.21
2024-05-09T07:07:19.918Z,12.23
2024-05-09T07:08:19.944Z,12.29
2024-05-09T07:09:19.859Z,12.36
2024-05-09T07:10:28.439Z,12.41
2024-05-09T07:11:19.916Z,12.43
2024-05-09T07:12:19.977Z,12.43
2024-05-09T07:13:19.851Z,12.46
2024-05-09T07:14:19.848Z,12.52
2024-05-09T07:15:19.819Z,12.56
2024-05-09T07:16:19.798Z,12.66
2024-05-09T07:17:19.950Z,12.71
2024-05-09T07:18:20.596Z,12.77
2024-05-09T07:19:19.999Z,12.84
2024-05-09T07:20:27.520Z,12.81
2024-05-09T07:21:19.902Z,12.84
2024-05-09T07:22:19.719Z,12.87
2024-05-09T07:23:19.869Z,12.92
2024-05-09T07:24:19.700Z,12.94
2024-05-09T07:25:19.684Z,12.96
2024-05-09T07:26:19.751Z,13.01
2024-05-09T07:27:19.674Z,12.99
2024-05-09T07:28:19.886Z,13.03
2024-05-09T07:29:19.676Z,13.06
2024-05-09T07:30:26.992Z,13.04
2024-05-09T07:31:19.661Z,13.09
2024-05-09T07:32:19.723Z,13.13
2024-05-09T07:33:21.181Z,13.16
2024-05-09T07:34:19.872Z,13.19
2024-05-09T07:35:19.757Z,13.22
2024-05-09T07:36:19.576Z,13.27
2024-05-09T07:37:19.552Z,13.27
2024-05-09T07:38:19.669Z,13.29
2024-05-09T07:39:19.545Z,13.31
2024-05-09T07:40:28.587Z,13.32
2024-05-09T07:41:19.575Z,13.27
2024-05-09T07:42:19.547Z,13.27
2024-05-09T07:43:19.537Z,13.25
2024-05-09T07:44:19.534Z,13.27
2024-05-09T07:45:39.695Z,13.25
2024-05-09T07:47:14.537Z,13.25
2024-05-09T07:50:34.265Z,13.27
2024-05-09T07:53:32.459Z,13.36
2024-05-09T07:53:49.382Z,13.57
2024-05-09T07:54:00.519Z,13.61
2024-05-09T07:54:56.003Z,13.61
2024-05-09T07:55:56.460Z,13.57
2024-05-09T07:56:56.051Z,13.59
2024-05-09T07:57:55.821Z,13.63
2024-05-09T07:58:56.320Z,13.66
2024-05-09T07:59:55.793Z,13.68
2024-05-09T08:00:55.957Z,13.72
2024-05-09T08:01:55.872Z,13.80
2024-05-09T08:02:55.780Z,13.86
2024-05-09T08:03:56.029Z,13.84
2024-05-09T08:04:55.829Z,13.86
2024-05-09T08:05:55.786Z,13.87
2024-05-09T08:06:55.801Z,13.91
2024-05-09T08:07:55.767Z,13.94
2024-05-09T08:08:56.016Z,13.96
2024-05-09T08:09:55.689Z,13.98
2024-05-09T08:10:55.765Z,13.98
2024-05-09T08:11:55.700Z,13.99
2024-05-09T08:12:55.703Z,14.02
2024-05-09T08:13:55.656Z,14.05
2024-05-09T08:14:55.636Z,14.05
2024-05-09T08:15:55.701Z,14.04
2024-05-09T08:16:55.674Z,14.02
2024-05-09T08:17:55.930Z,13.99
2024-05-09T08:18:55.665Z,14.05
2024-05-09T08:19:55.599Z,14.11
2024-05-09T08:20:55.562Z,14.19
2024-05-09T08:21:55.614Z,14.24
2024-05-09T08:22:55.539Z,14.30
2024-05-09T08:23:55.535Z,14.38
2024-05-09T08:24:55.604Z,14.41
2024-05-09T08:25:55.512Z,14.44
2024-05-09T08:26:55.500Z,14.45
2024-05-09T08:27:55.600Z,14.48
2024-05-09T08:28:55.506Z,14.49
2024-05-09T08:29:55.510Z,14.46
2024-05-09T08:30:55.609Z,14.45
2024-05-09T08:31:55.476Z,14.42
2024-05-09T08:32:55.467Z,14.41
2024-05-09T08:33:55.506Z,14.39
2024-05-09T08:34:55.501Z,14.39
2024-05-09T08:35:55.390Z,14.42
2024-05-09T08:36:57.530Z,14.48
2024-05-09T08:37:55.439Z,14.56
2024-05-09T08:38:55.365Z,14.60
2024-05-09T08:39:55.424Z,14.67
2024-05-09T08:40:55.374Z,14.79
2024-05-09T08:41:55.351Z,14.85
2024-05-09T08:42:55.332Z,14.91
2024-05-09T08:43:55.322Z,14.95
2024-05-09T08:44:55.290Z,15.01
2024-05-09T08:45:55.352Z,15.13
2024-05-09T08:46:55.275Z,15.22
2024-05-09T08:47:55.338Z,15.30
2024-05-09T08:48:55.462Z,15.31
2024-05-09T08:49:55.306Z,15.31
2024-05-09T08:50:55.261Z,15.25
2024-05-09T08:51:55.272Z,15.25
2024-05-09T08:52:55.250Z,15.33
2024-05-09T08:53:55.187Z,15.34
2024-05-09T08:54:55.280Z,15.37
2024-05-09T08:55:55.170Z,15.40
2024-05-09T08:56:55.157Z,15.44
2024-05-09T08:57:55.222Z,15.48
2024-05-09T08:58:55.137Z,15.51
2024-05-09T08:59:55.116Z,15.59
2024-05-09T09:00:55.223Z,15.66
2024-05-09T09:01:55.213Z,15.62
2024-05-09T09:02:55.137Z,15.64
2024-05-09T09:03:55.302Z,15.67
2024-05-09T09:04:55.203Z,15.71
2024-05-09T09:05:55.064Z,15.74
2024-05-09T09:06:57.707Z,15.78
2024-05-09T09:07:55.043Z,15.71
2024-05-09T09:08:55.038Z,15.66
2024-05-09T09:09:55.026Z,15.68
2024-05-09T09:10:55.053Z,15.73
2024-05-09T09:11:55.019Z,15.76
2024-05-09T09:12:55.022Z,15.80
2024-05-09T09:13:54.970Z,15.78
2024-05-09T09:14:54.961Z,15.84
2024-05-09T09:15:54.943Z,15.88
2024-05-09T09:16:54.928Z,15.91
2024-05-09T09:17:55.011Z,15.93
2024-05-09T09:18:55.175Z,15.93
2024-05-09T09:19:54.955Z,15.96
2024-05-09T09:20:54.983Z,15.88
2024-05-09T09:21:54.929Z,15.92
2024-05-09T09:22:54.873Z,15.86
2024-05-09T09:23:54.855Z,15.92
2024-05-09T09:24:54.924Z,16.04
2024-05-09T09:25:54.832Z,16.13
2024-05-09T09:26:54.823Z,16.14
2024-05-09T09:27:54.884Z,16.13
2024-05-09T09:28:54.814Z,16.10
2024-05-09T09:29:54.776Z,16.06
2024-05-09T09:30:54.786Z,16.01
2024-05-09T09:31:54.778Z,15.98
2024-05-09T09:32:54.797Z,15.92
2024-05-09T09:33:55.058Z,15.86
2024-05-09T09:34:54.837Z,15.84
2024-05-09T09:35:54.712Z,15.85
2024-05-09T09:36:54.736Z,15.95
2024-05-09T09:37:54.792Z,15.96
2024-05-09T09:38:54.689Z,15.99
2024-05-09T09:39:54.702Z,16.07
2024-05-09T09:40:54.694Z,16.14
2024-05-09T09:41:54.662Z,16.11
2024-05-09T09:42:54.686Z,16.11
2024-05-09T09:43:54.631Z,16.13
2024-05-09T09:45:02.222Z,16.18
2024-05-09T09:45:54.648Z,16.26
2024-05-09T09:46:54.609Z,16.27
2024-05-09T09:47:54.707Z,16.26
2024-05-09T09:48:54.658Z,16.29
2024-05-09T09:49:54.593Z,16.33
2024-05-09T09:50:54.546Z,16.44
2024-05-09T09:51:54.578Z,16.52
2024-05-09T09:52:54.536Z,16.57
2024-05-09T09:53:54.523Z,16.59
2024-05-09T09:54:54.535Z,16.62
2024-05-09T09:55:54.493Z,16.62
2024-05-09T09:56:54.484Z,16.59
2024-05-09T09:57:54.562Z,16.57
2024-05-09T09:58:54.482Z,16.52
2024-05-09T09:59:54.456Z,16.60
2024-05-09T10:00:54.607Z,16.59
2024-05-09T10:01:54.480Z,16.65
2024-05-09T10:02:54.467Z,16.80
2024-05-09T10:03:54.531Z,16.87
2024-05-09T10:04:54.514Z,16.81
2024-05-09T10:05:54.440Z,16.73
2024-05-09T10:06:54.440Z,16.67
2024-05-09T10:07:54.359Z,16.75
2024-05-09T10:08:54.365Z,16.87
2024-05-09T10:09:54.398Z,16.92
2024-05-09T10:10:54.723Z,16.91
2024-05-09T10:11:59.888Z,16.95
2024-05-09T10:12:54.335Z,16.98
2024-05-09T10:13:54.301Z,17.02
2024-05-09T10:14:54.289Z,16.95
2024-05-09T10:15:54.750Z,16.91
2024-05-09T10:16:54.262Z,16.85
2024-05-09T10:17:54.313Z,16.84
2024-05-09T10:18:54.513Z,16.92
2024-05-09T10:19:54.307Z,17.03
2024-05-09T10:20:54.225Z,17.21
2024-05-09T10:21:54.256Z,17.30
2024-05-09T10:22:54.215Z,17.36
2024-05-09T10:23:54.180Z,17.45
2024-05-09T10:24:54.263Z,17.42
2024-05-09T10:25:54.153Z,17.42
2024-05-09T10:26:54.170Z,17.45
2024-05-09T10:27:54.236Z,17.51
2024-05-09T10:28:54.125Z,17.55
2024-05-09T10:29:54.122Z,17.40
2024-05-09T10:30:54.131Z,17.30
2024-05-09T10:31:54.164Z,17.32
2024-05-09T10:32:54.244Z,17.40
2024-05-09T10:33:54.264Z,17.46
2024-05-09T10:34:54.064Z,17.47
2024-05-09T10:35:54.068Z,17.46
2024-05-09T10:36:54.181Z,17.40
2024-05-09T10:37:54.016Z,17.27
2024-05-09T10:38:54.087Z,17.12
2024-05-09T10:39:54.078Z,17.14
2024-05-09T10:40:54.031Z,17.22
2024-05-09T10:41:53.996Z,17.36
2024-05-09T10:42:54.020Z,17.51
2024-05-09T10:43:53.988Z,17.65
2024-05-09T10:44:53.959Z,17.76
2024-05-09T10:45:53.988Z,17.66
2024-05-09T10:46:53.967Z,17.60
2024-05-09T10:47:54.075Z,17.57
2024-05-09T10:48:54.036Z,17.54
2024-05-09T10:49:53.998Z,17.45
2024-05-09T10:50:53.878Z,17.43
2024-05-09T10:51:53.940Z,17.54
2024-05-09T10:52:53.853Z,17.58
2024-05-09T10:53:53.849Z,17.47
2024-05-09T10:54:53.875Z,17.25
2024-05-09T10:55:53.825Z,17.17
2024-05-09T10:56:53.807Z,17.12
2024-05-09T10:57:53.890Z,17.20
2024-05-09T10:58:53.801Z,17.25
2024-05-09T10:59:53.781Z,17.28
2024-05-09T11:00:53.840Z,17.33
2024-05-09T11:01:53.830Z,17.38
2024-05-09T11:02:53.855Z,17.46
2024-05-09T11:03:53.934Z,17.42
2024-05-09T11:04:54.078Z,17.38
2024-05-09T11:05:53.850Z,17.33
2024-05-09T11:06:53.855Z,17.36
2024-05-09T11:07:53.784Z,17.42
2024-05-09T11:08:53.663Z,17.43
2024-05-09T11:09:53.724Z,17.38
2024-05-09T11:10:53.743Z,17.46
2024-05-09T11:11:53.683Z,17.45
2024-05-09T11:12:53.684Z,17.36
2024-05-09T11:13:53.614Z,17.21
2024-05-09T11:14:53.621Z,17.14
2024-05-09T11:15:53.661Z,17.09
2024-05-09T11:16:53.587Z,17.06
2024-05-09T11:17:53.679Z,17.02
2024-05-09T11:18:53.697Z,17.03
2024-05-09T11:19:53.559Z,17.02
2024-05-09T11:20:53.582Z,17.06
2024-05-09T11:21:53.586Z,17.05
2024-05-09T11:22:53.524Z,17.00
2024-05-09T11:23:53.503Z,16.96
2024-05-09T11:24:53.539Z,16.96
2024-05-09T11:25:53.481Z,17.06
2024-05-09T11:26:53.472Z,17.15
2024-05-09T11:27:53.560Z,17.32
2024-05-09T11:28:53.456Z,17.45
2024-05-09T11:29:53.456Z,17.54
2024-05-09T11:30:53.480Z,17.63
2024-05-09T11:31:53.440Z,17.58
2024-05-09T11:32:53.490Z,17.51
2024-05-09T11:33:53.521Z,17.46
2024-05-09T11:34:53.365Z,17.51
2024-05-09T11:35:53.367Z,17.60
2024-05-09T11:36:53.425Z,17.70
2024-05-09T11:37:53.327Z,17.80
2024-05-09T11:38:53.327Z,17.86
2024-05-09T11:39:53.454Z,17.91
2024-05-09T11:40:53.510Z,17.92
2024-05-09T11:41:53.289Z,17.95
2024-05-09T11:42:53.673Z,18.01
2024-05-09T11:43:53.270Z,18.09
2024-05-09T11:44:53.277Z,18.23
2024-05-09T11:45:53.279Z,18.38
2024-05-09T11:46:53.241Z,18.44
2024-05-09T11:47:53.490Z,18.56
2024-05-09T11:48:53.481Z,18.57
2024-05-09T11:49:53.251Z,18.47
2024-05-09T11:50:53.267Z,18.50
2024-05-09T11:51:53.367Z,18.32
2024-05-09T11:52:53.174Z,18.01
2024-05-09T11:53:53.163Z,17.96
2024-05-09T11:54:53.208Z,18.07
2024-05-09T11:55:53.151Z,18.19
2024-05-09T11:56:53.173Z,18.32
2024-05-09T11:57:53.349Z,18.41
2024-05-09T11:58:53.108Z,18.50
2024-05-09T11:59:53.103Z,18.65
2024-05-09T12:00:53.289Z,18.74
2024-05-09T12:01:53.314Z,18.89
2024-05-09T12:02:53.096Z,19.06
2024-05-09T12:03:53.249Z,19.17
2024-05-09T12:04:53.148Z,19.20
2024-05-09T12:05:53.113Z,19.17
2024-05-09T12:06:53.073Z,19.16
2024-05-09T12:07:53.017Z,18.83
2024-05-09T12:08:53.016Z,18.49
2024-05-09T12:09:53.036Z,18.26
2024-05-09T12:10:53.579Z,18.14
2024-05-09T12:11:53.078Z,18.01
2024-05-09T12:12:52.966Z,17.95
2024-05-09T12:13:52.938Z,17.89
2024-05-09T12:14:52.923Z,17.84
2024-05-09T12:15:52.979Z,17.84
2024-05-09T12:16:52.963Z,17.94
2024-05-09T12:17:53.000Z,18.13
2024-05-09T12:18:53.021Z,18.41
2024-05-09T12:19:52.872Z,18.64
2024-05-09T12:20:52.858Z,18.60
2024-05-09T12:21:52.895Z,18.50
2024-05-09T12:22:52.854Z,18.41
2024-05-09T12:23:52.836Z,18.20
2024-05-09T12:24:52.879Z,18.04
2024-05-09T12:25:52.805Z,17.91
2024-05-09T12:26:52.791Z,18.07
2024-05-09T12:27:52.827Z,18.32
2024-05-09T12:28:52.770Z,18.57
2024-05-09T12:29:52.755Z,18.82
2024-05-09T12:30:52.784Z,19.01
2024-05-09T12:31:52.770Z,18.91
2024-05-09T12:32:53.026Z,18.76
2024-05-09T12:33:52.754Z,18.66
2024-05-09T12:34:52.695Z,18.71
2024-05-09T12:35:52.726Z,18.64
2024-05-09T12:36:52.718Z,18.49
2024-05-09T12:37:52.667Z,18.36
2024-05-09T12:38:52.656Z,18.23
2024-05-09T12:39:52.722Z,18.19
2024-05-09T12:40:52.889Z,18.19
2024-05-09T12:41:52.626Z,18.10
2024-05-09T12:42:52.684Z,18.11
2024-05-09T12:43:52.614Z,18.34
2024-05-09T12:44:52.603Z,18.49
2024-05-09T12:45:52.687Z,18.69
2024-05-09T12:46:52.584Z,18.82
2024-05-09T12:47:52.663Z,18.99
2024-05-09T12:48:52.824Z,19.24
2024-05-09T12:49:52.707Z,19.49
2024-05-09T12:50:52.572Z,19.71
2024-05-09T12:51:52.542Z,19.95
2024-05-09T12:52:52.514Z,20.22
2024-05-09T12:53:52.494Z,20.44
2024-05-09T12:54:52.505Z,20.68
2024-05-09T12:55:56.982Z,20.81
2024-05-09T12:56:52.468Z,20.90
2024-05-09T12:57:52.636Z,20.66
2024-05-09T12:58:52.445Z,20.51
2024-05-09T12:59:52.428Z,20.01
2024-05-09T13:00:52.994Z,20.13
2024-05-09T13:01:52.462Z,20.16
2024-05-09T13:02:52.485Z,20.10
2024-05-09T13:03:52.525Z,19.80
2024-05-09T13:04:52.450Z,19.34
2024-05-09T13:05:52.501Z,18.93
2024-05-09T13:06:52.400Z,18.59
2024-05-09T13:07:52.347Z,18.50